sensor_id;sensor_type;location;lat;lon;timestamp;pressure;altitude;pressure_sealevel;temperature;humidity
48794;BME280;34589;42.306;23.858;2024-03-25T00:00:31;94067.44;;;10.14;60.26
48794;BME280;34589;42.306;23.858;2024-03-25T00:02:02;94066.78;;;9.82;61.35
48794;BME280;34589;42.306;23.858;2024-03-25T00:03:34;94078.75;;;9.68;62.58
48794;BME280;34589;42.306;23.858;2024-03-25T00:05:05;94090.88;;;9.53;63.54
48794;BME280;34589;42.306;23.858;2024-03-25T00:06:36;94111.50;;;9.46;64.11
48794;BME280;34589;42.306;23.858;2024-03-25T00:08:09;94133.31;;;9.37;64.26
48794;BME280;34589;42.306;23.858;2024-03-25T00:09:40;94134.78;;;9.31;64.80
48794;BME280;34589;42.306;23.858;2024-03-25T00:11:10;94156.41;;;9.23;64.68
48794;BME280;34589;42.306;23.858;2024-03-25T00:12:42;94174.72;;;8.90;65.32
48794;BME280;34589;42.306;23.858;2024-03-25T00:14:12;94202.81;;;8.62;66.09
48794;BME280;34589;42.306;23.858;2024-03-25T00:15:44;94223.06;;;8.42;67.10
48794;BME280;34589;42.306;23.858;2024-03-25T00:17:15;94233.09;;;8.62;67.06
48794;BME280;34589;42.306;23.858;2024-03-25T00:18:46;94247.25;;;8.74;66.49
48794;BME280;34589;42.306;23.858;2024-03-25T00:20:19;94270.38;;;8.76;68.70
48794;BME280;34589;42.306;23.858;2024-03-25T00:21:51;94276.91;;;8.63;68.82
48794;BME280;34589;42.306;23.858;2024-03-25T00:23:22;94280.31;;;8.23;68.22
48794;BME280;34589;42.306;23.858;2024-03-25T00:24:54;94285.84;;;7.95;69.36
48794;BME280;34589;42.306;23.858;2024-03-25T00:26:25;94287.28;;;8.06;69.57
48794;BME280;34589;42.306;23.858;2024-03-25T00:27:57;94302.31;;;7.94;69.64
48794;BME280;34589;42.306;23.858;2024-03-25T00:29:28;94304.09;;;7.93;71.17
48794;BME280;34589;42.306;23.858;2024-03-25T00:30:58;94301.38;;;8.11;70.00
48794;BME280;34589;42.306;23.858;2024-03-25T00:32:30;94300.38;;;8.21;69.29
48794;BME280;34589;42.306;23.858;2024-03-25T00:34:01;94302.97;;;8.29;67.40
48794;BME280;34589;42.306;23.858;2024-03-25T00:35:34;94303.28;;;8.09;67.67
48794;BME280;34589;42.306;23.858;2024-03-25T00:37:06;94295.84;;;7.65;68.93
48794;BME280;34589;42.306;23.858;2024-03-25T00:38:38;94294.38;;;7.71;69.54
48794;BME280;34589;42.306;23.858;2024-03-25T00:40:09;94283.53;;;7.59;68.51
48794;BME280;34589;42.306;23.858;2024-03-25T00:41:41;94282.59;;;7.68;68.78
48794;BME280;34589;42.306;23.858;2024-03-25T00:43:11;94290.53;;;7.83;69.17
48794;BME280;34589;42.306;23.858;2024-03-25T00:44:42;94279.06;;;7.69;68.40
48794;BME280;34589;42.306;23.858;2024-03-25T00:46:14;94286.94;;;7.51;69.07
48794;BME280;34589;42.306;23.858;2024-03-25T00:47:44;94276.94;;;7.65;68.60
48794;BME280;34589;42.306;23.858;2024-03-25T00:49:16;94275.78;;;7.42;69.00
48794;BME280;34589;42.306;23.858;2024-03-25T00:50:47;94268.53;;;7.46;69.21
48794;BME280;34589;42.306;23.858;2024-03-25T00:52:17;94263.19;;;7.39;68.80
48794;BME280;34589;42.306;23.858;2024-03-25T00:53:48;94249.31;;;7.49;68.94
48794;BME280;34589;42.306;23.858;2024-03-25T00:55:18;94241.25;;;7.52;68.49
48794;BME280;34589;42.306;23.858;2024-03-25T00:56:50;94241.25;;;7.52;68.92
48794;BME280;34589;42.306;23.858;2024-03-25T00:58:21;94233.13;;;7.30;68.90
48794;BME280;34589;42.306;23.858;2024-03-25T00:59:52;94214.13;;;7.39;68.52
48794;BME280;34589;42.306;23.858;2024-03-25T01:01:22;94205.06;;;7.43;69.03
48794;BME280;34589;42.306;23.858;2024-03-25T01:02:54;94214.44;;;7.53;67.91
48794;BME280;34589;42.306;23.858;2024-03-25T01:04:25;94213.94;;;7.24;68.28
48794;BME280;34589;42.306;23.858;2024-03-25T01:05:56;94220.22;;;7.30;68.85
48794;BME280;34589;42.306;23.858;2024-03-25T01:07:27;94221.16;;;7.04;69.25
48794;BME280;34589;42.306;23.858;2024-03-25T01:08:59;94234.69;;;6.98;69.64
48794;BME280;34589;42.306;23.858;2024-03-25T01:10:31;94232.94;;;7.15;69.16
48794;BME280;34589;42.306;23.858;2024-03-25T01:12:01;94235.72;;;7.30;68.24
48794;BME280;34589;42.306;23.858;2024-03-25T01:13:33;94221.22;;;7.29;68.63
48794;BME280;34589;42.306;23.858;2024-03-25T01:15:04;94229.59;;;7.23;68.91
48794;BME280;34589;42.306;23.858;2024-03-25T01:16:37;94222.94;;;7.20;69.24
48794;BME280;34589;42.306;23.858;2024-03-25T01:18:07;94216.69;;;7.31;69.05
48794;BME280;34589;42.306;23.858;2024-03-25T01:19:38;94221.63;;;7.08;69.30
48794;BME280;34589;42.306;23.858;2024-03-25T01:21:09;94213.44;;;7.13;69.76
48794;BME280;34589;42.306;23.858;2024-03-25T01:22:39;94210.22;;;7.27;69.14
48794;BME280;34589;42.306;23.858;2024-03-25T01:24:11;94214.22;;;7.05;68.73
48794;BME280;34589;42.306;23.858;2024-03-25T01:25:42;94204.06;;;7.20;69.14
48794;BME280;34589;42.306;23.858;2024-03-25T01:27:12;94201.03;;;7.33;68.74
48794;BME280;34589;42.306;23.858;2024-03-25T01:28:44;94196.34;;;7.36;69.10
48794;BME280;34589;42.306;23.858;2024-03-25T01:30:15;94194.41;;;7.47;68.42
48794;BME280;34589;42.306;23.858;2024-03-25T01:31:46;94186.03;;;7.45;68.30
48794;BME280;34589;42.306;23.858;2024-03-25T01:33:17;94183.44;;;7.36;69.09
48794;BME280;34589;42.306;23.858;2024-03-25T01:34:49;94178.59;;;7.25;68.48
48794;BME280;34589;42.306;23.858;2024-03-25T01:36:19;94180.19;;;7.18;68.94
48794;BME280;34589;42.306;23.858;2024-03-25T01:37:50;94189.41;;;7.37;68.83
48794;BME280;34589;42.306;23.858;2024-03-25T01:39:22;94181.81;;;7.43;68.15
48794;BME280;34589;42.306;23.858;2024-03-25T01:40:53;94188.41;;;7.13;68.88
48794;BME280;34589;42.306;23.858;2024-03-25T01:42:24;94190.63;;;6.92;69.92
48794;BME280;34589;42.306;23.858;2024-03-25T01:43:54;94194.66;;;6.94;70.21
48794;BME280;34589;42.306;23.858;2024-03-25T01:45:28;94196.44;;;7.02;69.81
48794;BME280;34589;42.306;23.858;2024-03-25T01:46:59;94196.28;;;6.95;69.48
48794;BME280;34589;42.306;23.858;2024-03-25T01:48:31;94203.38;;;6.93;69.90
48794;BME280;34589;42.306;23.858;2024-03-25T01:50:02;94213.16;;;6.81;70.07
48794;BME280;34589;42.306;23.858;2024-03-25T01:51:35;94216.56;;;6.82;70.50
48794;BME280;34589;42.306;23.858;2024-03-25T01:53:06;94196.88;;;6.73;70.21
48794;BME280;34589;42.306;23.858;2024-03-25T01:54:38;94193.03;;;6.93;70.69
48794;BME280;34589;42.306;23.858;2024-03-25T01:56:10;94202.25;;;6.96;70.85
48794;BME280;34589;42.306;23.858;2024-03-25T01:57:42;94202.44;;;7.02;70.34
48794;BME280;34589;42.306;23.858;2024-03-25T01:59:15;94201.94;;;7.07;70.14
48794;BME280;34589;42.306;23.858;2024-03-25T02:00:47;94196.47;;;7.18;70.37
48794;BME280;34589;42.306;23.858;2024-03-25T02:02:18;94197.44;;;7.01;70.34
48794;BME280;34589;42.306;23.858;2024-03-25T02:03:48;94196.00;;;7.15;70.11
48794;BME280;34589;42.306;23.858;2024-03-25T02:05:19;94200.03;;;7.09;69.67
48794;BME280;34589;42.306;23.858;2024-03-25T02:06:50;94203.84;;;6.97;70.79
48794;BME280;34589;42.306;23.858;2024-03-25T02:08:22;94210.31;;;6.93;70.18
48794;BME280;34589;42.306;23.858;2024-03-25T02:09:53;94202.25;;;6.96;70.31
48794;BME280;34589;42.306;23.858;2024-03-25T02:11:24;94197.72;;;6.90;70.49
48794;BME280;34589;42.306;23.858;2024-03-25T02:12:57;94191.94;;;6.96;70.16
48794;BME280;34589;42.306;23.858;2024-03-25T02:14:28;94194.19;;;6.91;69.75
48794;BME280;34589;42.306;23.858;2024-03-25T02:16:00;94189.38;;;7.04;70.18
48794;BME280;34589;42.306;23.858;2024-03-25T02:17:30;94189.47;;;6.78;69.70
48794;BME280;34589;42.306;23.858;2024-03-25T02:19:02;94187.19;;;6.75;70.59
48794;BME280;34589;42.306;23.858;2024-03-25T02:20:33;94183.84;;;6.82;71.04
48794;BME280;34589;42.306;23.858;2024-03-25T02:22:04;94186.88;;;6.78;70.93
48794;BME280;34589;42.306;23.858;2024-03-25T02:23:34;94184.78;;;6.81;70.72
48794;BME280;34589;42.306;23.858;2024-03-25T02:25:06;94174.59;;;6.72;71.60
48794;BME280;34589;42.306;23.858;2024-03-25T02:26:38;94168.84;;;6.86;70.60
48794;BME280;34589;42.306;23.858;2024-03-25T02:28:10;94167.28;;;7.10;70.14
48794;BME280;34589;42.306;23.858;2024-03-25T02:29:41;94169.16;;;6.83;70.62
48794;BME280;34589;42.306;23.858;2024-03-25T02:31:14;94166.41;;;6.84;70.68
48794;BME280;34589;42.306;23.858;2024-03-25T02:32:45;94171.28;;;6.96;70.15
48794;BME280;34589;42.306;23.858;2024-03-25T02:34:15;94168.69;;;6.87;70.35
48794;BME280;34589;42.306;23.858;2024-03-25T02:35:47;94176.19;;;6.64;70.21
48794;BME280;34589;42.306;23.858;2024-03-25T02:37:18;94171.03;;;6.64;71.09
48794;BME280;34589;42.306;23.858;2024-03-25T02:38:49;94181.03;;;6.67;71.58
48794;BME280;34589;42.306;23.858;2024-03-25T02:40:20;94181.38;;;6.73;70.91
48794;BME280;34589;42.306;23.858;2024-03-25T02:41:51;94179.94;;;6.78;71.25
48794;BME280;34589;42.306;23.858;2024-03-25T02:43:22;94168.56;;;6.97;69.94
48794;BME280;34589;42.306;23.858;2024-03-25T02:44:54;94173.72;;;6.97;71.08
48794;BME280;34589;42.306;23.858;2024-03-25T02:46:24;94171.78;;;6.99;70.05
48794;BME280;34589;42.306;23.858;2024-03-25T02:47:56;94167.75;;;7.13;69.81
48794;BME280;34589;42.306;23.858;2024-03-25T02:49:27;94174.69;;;7.13;69.25
48794;BME280;34589;42.306;23.858;2024-03-25T02:50:59;94174.63;;;6.80;69.20
48794;BME280;34589;42.306;23.858;2024-03-25T02:52:30;94166.91;;;6.88;69.63
48794;BME280;34589;42.306;23.858;2024-03-25T02:54:02;94158.22;;;6.89;69.92
48794;BME280;34589;42.306;23.858;2024-03-25T02:55:32;94157.53;;;6.87;70.07
48794;BME280;34589;42.306;23.858;2024-03-25T02:57:03;94153.22;;;6.96;70.23
48794;BME280;34589;42.306;23.858;2024-03-25T02:58:33;94155.75;;;6.79;69.90
48794;BME280;34589;42.306;23.858;2024-03-25T03:00:04;94152.41;;;6.95;70.39
48794;BME280;34589;42.306;23.858;2024-03-25T03:01:36;94149.03;;;7.11;69.97
48794;BME280;34589;42.306;23.858;2024-03-25T03:03:09;94148.22;;;7.27;69.27
48794;BME280;34589;42.306;23.858;2024-03-25T03:04:39;94155.19;;;7.35;69.63
48794;BME280;34589;42.306;23.858;2024-03-25T03:06:11;94146.97;;;7.39;70.20
48794;BME280;34589;42.306;23.858;2024-03-25T03:07:41;94150.03;;;7.68;69.23
48794;BME280;34589;42.306;23.858;2024-03-25T03:09:12;94160.00;;;7.71;69.08
48794;BME280;34589;42.306;23.858;2024-03-25T03:10:43;94162.16;;;7.51;69.28
48794;BME280;34589;42.306;23.858;2024-03-25T03:12:15;94167.78;;;7.63;69.01
48794;BME280;34589;42.306;23.858;2024-03-25T03:13:46;94163.41;;;7.63;67.85
48794;BME280;34589;42.306;23.858;2024-03-25T03:15:17;94162.47;;;7.48;67.49
48794;BME280;34589;42.306;23.858;2024-03-25T03:16:48;94163.91;;;7.42;67.67
48794;BME280;34589;42.306;23.858;2024-03-25T03:18:20;94162.75;;;7.20;69.41
48794;BME280;34589;42.306;23.858;2024-03-25T03:19:51;94172.94;;;7.21;68.93
48794;BME280;34589;42.306;23.858;2024-03-25T03:21:21;94169.19;;;6.99;69.19
48794;BME280;34589;42.306;23.858;2024-03-25T03:22:52;94175.66;;;7.20;69.33
48794;BME280;34589;42.306;23.858;2024-03-25T03:24:24;94174.38;;;7.16;68.43
48794;BME280;34589;42.306;23.858;2024-03-25T03:25:55;94180.50;;;7.06;68.13
48794;BME280;34589;42.306;23.858;2024-03-25T03:27:27;94191.16;;;7.12;67.94
48794;BME280;34589;42.306;23.858;2024-03-25T03:28:59;94193.72;;;7.12;68.06
48794;BME280;34589;42.306;23.858;2024-03-25T03:30:30;94194.00;;;6.84;67.70
48794;BME280;34589;42.306;23.858;2024-03-25T03:32:01;94205.94;;;6.85;67.82
48794;BME280;34589;42.306;23.858;2024-03-25T03:33:31;94201.25;;;6.88;68.17
48794;BME280;34589;42.306;23.858;2024-03-25T03:35:03;94210.81;;;7.04;67.93
48794;BME280;34589;42.306;23.858;2024-03-25T03:36:35;94215.03;;;7.22;67.68
48794;BME280;34589;42.306;23.858;2024-03-25T03:38:05;94215.22;;;7.37;67.36
48794;BME280;34589;42.306;23.858;2024-03-25T03:39:36;94228.28;;;7.27;68.77
48794;BME280;34589;42.306;23.858;2024-03-25T03:41:07;94236.88;;;7.36;68.73
48794;BME280;34589;42.306;23.858;2024-03-25T03:42:39;94244.63;;;7.44;68.59
48794;BME280;34589;42.306;23.858;2024-03-25T03:44:10;94251.88;;;7.49;68.14
48794;BME280;34589;42.306;23.858;2024-03-25T03:45:40;94257.03;;;7.40;68.13
48794;BME280;34589;42.306;23.858;2024-03-25T03:47:12;94262.69;;;7.36;67.91
48794;BME280;34589;42.306;23.858;2024-03-25T03:48:42;94258.00;;;7.31;67.15
48794;BME280;34589;42.306;23.858;2024-03-25T03:50:14;94279.44;;;7.23;68.35
48794;BME280;34589;42.306;23.858;2024-03-25T03:51:44;94291.25;;;7.26;68.00
48794;BME280;34589;42.306;23.858;2024-03-25T03:53:15;94282.34;;;7.20;68.01
48794;BME280;34589;42.306;23.858;2024-03-25T03:54:46;94279.25;;;7.17;67.98
48794;BME280;34589;42.306;23.858;2024-03-25T03:56:17;94284.94;;;7.29;67.92
48794;BME280;34589;42.306;23.858;2024-03-25T03:57:48;94289.63;;;7.25;67.64
48794;BME280;34589;42.306;23.858;2024-03-25T03:59:19;94284.75;;;7.22;67.54
48794;BME280;34589;42.306;23.858;2024-03-25T04:00:51;94286.56;;;7.30;68.52
48794;BME280;34589;42.306;23.858;2024-03-25T04:02:22;94291.41;;;7.33;67.45
48794;BME280;34589;42.306;23.858;2024-03-25T04:03:53;94289.63;;;7.25;67.47
48794;BME280;34589;42.306;23.858;2024-03-25T04:05:27;94286.91;;;7.35;67.36
48794;BME280;34589;42.306;23.858;2024-03-25T04:06:59;94279.13;;;7.27;67.21
48794;BME280;34589;42.306;23.858;2024-03-25T04:08:30;94286.31;;;7.06;68.23
48794;BME280;34589;42.306;23.858;2024-03-25T04:10:02;94290.16;;;6.94;67.15
48794;BME280;34589;42.306;23.858;2024-03-25T04:11:35;94285.81;;;6.95;68.46
48794;BME280;34589;42.306;23.858;2024-03-25T04:13:06;94287.75;;;6.93;68.06
48794;BME280;34589;42.306;23.858;2024-03-25T04:14:38;94291.69;;;6.71;68.40
48794;BME280;34589;42.306;23.858;2024-03-25T04:16:09;94295.78;;;6.90;67.62
48794;BME280;34589;42.306;23.858;2024-03-25T04:17:40;94295.00;;;6.89;66.93
48794;BME280;34589;42.306;23.858;2024-03-25T04:19:11;94300.00;;;6.91;67.71
48794;BME280;34589;42.306;23.858;2024-03-25T04:20:42;94309.53;;;6.64;68.27
48794;BME280;34589;42.306;23.858;2024-03-25T04:22:12;94312.03;;;6.47;69.13
48794;BME280;34589;42.306;23.858;2024-03-25T04:23:43;94317.38;;;6.54;68.98
48794;BME280;34589;42.306;23.858;2024-03-25T04:25:16;94317.72;;;6.59;68.85
48794;BME280;34589;42.306;23.858;2024-03-25T04:26:47;94309.84;;;6.61;67.87
48794;BME280;34589;42.306;23.858;2024-03-25T04:28:17;94315.34;;;6.66;68.93
48794;BME280;34589;42.306;23.858;2024-03-25T04:29:48;94307.41;;;6.85;67.79
48794;BME280;34589;42.306;23.858;2024-03-25T04:31:18;94314.13;;;6.78;67.18
48794;BME280;34589;42.306;23.858;2024-03-25T04:32:51;94319.72;;;6.65;68.21
48794;BME280;34589;42.306;23.858;2024-03-25T04:34:22;94310.03;;;6.67;68.46
48794;BME280;34589;42.306;23.858;2024-03-25T04:35:56;94321.22;;;6.76;67.62
48794;BME280;34589;42.306;23.858;2024-03-25T04:37:27;94319.84;;;6.64;67.38
48794;BME280;34589;42.306;23.858;2024-03-25T04:38:58;94322.94;;;6.67;68.57
48794;BME280;34589;42.306;23.858;2024-03-25T04:40:29;94317.31;;;6.72;67.23
48794;BME280;34589;42.306;23.858;2024-03-25T04:42:01;94325.47;;;6.85;67.71
48794;BME280;34589;42.306;23.858;2024-03-25T04:43:33;94327.13;;;6.68;67.73
48794;BME280;34589;42.306;23.858;2024-03-25T04:45:04;94327.28;;;7.01;66.80
48794;BME280;34589;42.306;23.858;2024-03-25T04:46:36;94334.84;;;6.95;66.21
48794;BME280;34589;42.306;23.858;2024-03-25T04:48:06;94328.03;;;6.85;66.25
48794;BME280;34589;42.306;23.858;2024-03-25T04:49:39;94337.91;;;6.64;67.24
48794;BME280;34589;42.306;23.858;2024-03-25T04:51:10;94356.72;;;6.56;67.40
48794;BME280;34589;42.306;23.858;2024-03-25T04:52:41;94356.16;;;6.44;68.08
48794;BME280;34589;42.306;23.858;2024-03-25T04:54:11;94359.25;;;6.48;68.06
48794;BME280;34589;42.306;23.858;2024-03-25T04:55:42;94355.09;;;6.55;68.70
48794;BME280;34589;42.306;23.858;2024-03-25T04:57:12;94359.09;;;6.49;68.44
48794;BME280;34589;42.306;23.858;2024-03-25T04:58:44;94357.31;;;6.50;68.14
48794;BME280;34589;42.306;23.858;2024-03-25T05:00:15;94350.75;;;6.56;67.60
48794;BME280;34589;42.306;23.858;2024-03-25T05:01:45;94352.22;;;6.58;67.81
48794;BME280;34589;42.306;23.858;2024-03-25T05:03:17;94343.47;;;6.77;66.82
48794;BME280;34589;42.306;23.858;2024-03-25T05:04:47;94338.38;;;6.85;66.89
48794;BME280;34589;42.306;23.858;2024-03-25T05:06:18;94348.50;;;6.79;67.42
48794;BME280;34589;42.306;23.858;2024-03-25T05:07:48;94354.03;;;6.92;66.88
48794;BME280;34589;42.306;23.858;2024-03-25T05:09:19;94355.06;;;7.08;66.67
48794;BME280;34589;42.306;23.858;2024-03-25T05:10:50;94367.75;;;6.93;66.43
48794;BME280;34589;42.306;23.858;2024-03-25T05:12:21;94362.78;;;6.99;66.85
48794;BME280;34589;42.306;23.858;2024-03-25T05:13:51;94363.97;;;7.13;66.25
48794;BME280;34589;42.306;23.858;2024-03-25T05:15:22;94364.97;;;7.20;66.77
48794;BME280;34589;42.306;23.858;2024-03-25T05:16:52;94361.53;;;7.12;65.84
48794;BME280;34589;42.306;23.858;2024-03-25T05:18:23;94363.69;;;7.24;66.38
48794;BME280;34589;42.306;23.858;2024-03-25T05:19:54;94367.63;;;7.02;66.34
48794;BME280;34589;42.306;23.858;2024-03-25T05:21:26;94364.75;;;7.05;66.40
48794;BME280;34589;42.306;23.858;2024-03-25T05:22:56;94380.84;;;6.99;66.76
48794;BME280;34589;42.306;23.858;2024-03-25T05:24:28;94373.19;;;7.16;65.97
48794;BME280;34589;42.306;23.858;2024-03-25T05:25:58;94382.56;;;7.25;65.60
48794;BME280;34589;42.306;23.858;2024-03-25T05:27:29;94377.06;;;7.20;65.69
48794;BME280;34589;42.306;23.858;2024-03-25T05:29:01;94373.84;;;7.18;65.49
48794;BME280;34589;42.306;23.858;2024-03-25T05:30:31;94380.94;;;7.16;65.61
48794;BME280;34589;42.306;23.858;2024-03-25T05:32:02;94390.72;;;7.04;66.06
48794;BME280;34589;42.306;23.858;2024-03-25T05:33:34;94387.13;;;7.31;65.70
48794;BME280;34589;42.306;23.858;2024-03-25T05:35:04;94380.94;;;7.16;64.83
48794;BME280;34589;42.306;23.858;2024-03-25T05:36:35;94385.13;;;7.17;64.47
48794;BME280;34589;42.306;23.858;2024-03-25T05:38:06;94381.31;;;7.29;65.04
48794;BME280;34589;42.306;23.858;2024-03-25T05:39:37;94379.84;;;7.27;64.93
48794;BME280;34589;42.306;23.858;2024-03-25T05:41:09;94384.34;;;7.24;64.69
48794;BME280;34589;42.306;23.858;2024-03-25T05:42:40;94391.13;;;7.17;65.20
48794;BME280;34589;42.306;23.858;2024-03-25T05:44:11;94407.06;;;7.13;64.90
48794;BME280;34589;42.306;23.858;2024-03-25T05:45:52;94409.84;;;6.93;65.45
48794;BME280;34589;42.306;23.858;2024-03-25T05:47:23;94411.88;;;6.81;65.59
48794;BME280;34589;42.306;23.858;2024-03-25T05:48:55;94412.16;;;6.78;65.59
48794;BME280;34589;42.306;23.858;2024-03-25T05:50:26;94421.28;;;6.64;66.16
48794;BME280;34589;42.306;23.858;2024-03-25T05:51:57;94427.75;;;6.68;66.10
48794;BME280;34589;42.306;23.858;2024-03-25T05:53:28;94423.63;;;6.76;66.33
48794;BME280;34589;42.306;23.858;2024-03-25T05:55:00;94426.19;;;6.76;65.71
48794;BME280;34589;42.306;23.858;2024-03-25T05:56:32;94431.00;;;6.97;65.55
48794;BME280;34589;42.306;23.858;2024-03-25T05:58:02;94441.03;;;6.56;65.22
48794;BME280;34589;42.306;23.858;2024-03-25T05:59:39;94447.06;;;6.64;65.88
48794;BME280;34589;42.306;23.858;2024-03-25T06:01:09;94439.78;;;6.60;65.17
48794;BME280;34589;42.306;23.858;2024-03-25T06:02:41;94437.75;;;6.27;65.20
48794;BME280;34589;42.306;23.858;2024-03-25T06:04:11;94443.84;;;6.26;65.46
48794;BME280;34589;42.306;23.858;2024-03-25T06:05:42;94440.91;;;6.57;64.79
48794;BME280;34589;42.306;23.858;2024-03-25T06:07:12;94432.13;;;6.50;64.16
48794;BME280;34589;42.306;23.858;2024-03-25T06:08:43;94441.47;;;6.69;63.99
48794;BME280;34589;42.306;23.858;2024-03-25T06:10:14;94445.22;;;6.57;63.92
48794;BME280;34589;42.306;23.858;2024-03-25T06:11:44;94452.28;;;6.73;63.15
48794;BME280;34589;42.306;23.858;2024-03-25T06:13:15;94450.44;;;6.65;62.83
48794;BME280;34589;42.306;23.858;2024-03-25T06:14:46;94443.00;;;6.62;63.03
48794;BME280;34589;42.306;23.858;2024-03-25T06:16:18;94460.13;;;6.63;63.13
48794;BME280;34589;42.306;23.858;2024-03-25T06:17:51;94469.13;;;6.59;62.27
48794;BME280;34589;42.306;23.858;2024-03-25T06:19:23;94469.84;;;6.51;62.19
48794;BME280;34589;42.306;23.858;2024-03-25T06:20:55;94478.09;;;6.55;62.02
48794;BME280;34589;42.306;23.858;2024-03-25T06:22:26;94474.66;;;6.64;62.34
48794;BME280;34589;42.306;23.858;2024-03-25T06:23:57;94472.50;;;6.59;62.57
48794;BME280;34589;42.306;23.858;2024-03-25T06:25:27;94478.47;;;6.60;62.12
48794;BME280;34589;42.306;23.858;2024-03-25T06:26:59;94480.59;;;6.64;62.93
48794;BME280;34589;42.306;23.858;2024-03-25T06:28:30;94472.22;;;6.62;62.31
48794;BME280;34589;42.306;23.858;2024-03-25T06:30:01;94487.28;;;6.75;62.27
48794;BME280;34589;42.306;23.858;2024-03-25T06:31:50;94488.19;;;6.84;61.55
48794;BME280;34589;42.306;23.858;2024-03-25T06:33:39;94487.47;;;6.74;62.37
48794;BME280;34589;42.306;23.858;2024-03-25T06:35:28;94488.69;;;6.87;62.81
48794;BME280;34589;42.306;23.858;2024-03-25T06:37:00;94486.69;;;6.99;61.79
48794;BME280;34589;42.306;23.858;2024-03-25T06:38:30;94486.84;;;6.98;63.00
48794;BME280;34589;42.306;23.858;2024-03-25T06:40:01;94491.59;;;7.11;61.81
48794;BME280;34589;42.306;23.858;2024-03-25T06:41:31;94486.78;;;7.16;62.01
48794;BME280;34589;42.306;23.858;2024-03-25T06:43:02;94494.94;;;7.29;61.98
48794;BME280;34589;42.306;23.858;2024-03-25T06:44:34;94494.91;;;7.21;61.20
48794;BME280;34589;42.306;23.858;2024-03-25T06:46:05;94497.41;;;7.13;61.30
48794;BME280;34589;42.306;23.858;2024-03-25T06:47:36;94493.66;;;7.07;60.85
48794;BME280;34589;42.306;23.858;2024-03-25T06:49:07;94490.88;;;7.00;60.06
48794;BME280;34589;42.306;23.858;2024-03-25T06:50:38;94500.25;;;6.83;60.29
48794;BME280;34589;42.306;23.858;2024-03-25T06:52:10;94495.22;;;7.00;60.48
48794;BME280;34589;42.306;23.858;2024-03-25T06:53:40;94509.69;;;7.11;59.75
48794;BME280;34589;42.306;23.858;2024-03-25T06:55:11;94501.88;;;7.02;59.36
48794;BME280;34589;42.306;23.858;2024-03-25T06:56:42;94508.91;;;7.18;60.12
48794;BME280;34589;42.306;23.858;2024-03-25T06:58:13;94497.13;;;7.16;59.94
48794;BME280;34589;42.306;23.858;2024-03-25T06:59:45;94517.78;;;7.16;59.11
48794;BME280;34589;42.306;23.858;2024-03-25T07:01:16;94502.16;;;7.25;59.08
48794;BME280;34589;42.306;23.858;2024-03-25T07:02:47;94514.22;;;7.17;59.16
48794;BME280;34589;42.306;23.858;2024-03-25T07:04:18;94509.69;;;7.11;58.31
48794;BME280;34589;42.306;23.858;2024-03-25T07:05:49;94509.47;;;7.04;58.44
48794;BME280;34589;42.306;23.858;2024-03-25T07:07:23;94516.28;;;7.13;59.15
48794;BME280;34589;42.306;23.858;2024-03-25T07:08:55;94509.88;;;7.17;59.02
48794;BME280;34589;42.306;23.858;2024-03-25T07:10:26;94510.38;;;7.21;57.87
48794;BME280;34589;42.306;23.858;2024-03-25T07:11:57;94504.19;;;7.14;58.29
48794;BME280;34589;42.306;23.858;2024-03-25T07:13:29;94519.09;;;7.20;57.76
48794;BME280;34589;42.306;23.858;2024-03-25T07:15:00;94506.03;;;7.21;57.72
48794;BME280;34589;42.306;23.858;2024-03-25T07:16:31;94516.66;;;7.18;58.09
48794;BME280;34589;42.306;23.858;2024-03-25T07:18:03;94516.66;;;7.18;57.37
48794;BME280;34589;42.306;23.858;2024-03-25T07:19:34;94513.97;;;7.28;57.87
48794;BME280;34589;42.306;23.858;2024-03-25T07:21:06;94530.03;;;7.40;58.64
48794;BME280;34589;42.306;23.858;2024-03-25T07:22:36;94522.44;;;7.38;57.71
48794;BME280;34589;42.306;23.858;2024-03-25T07:24:08;94515.47;;;7.31;56.95
48794;BME280;34589;42.306;23.858;2024-03-25T07:25:39;94525.41;;;7.52;57.34
48794;BME280;34589;42.306;23.858;2024-03-25T07:27:10;94536.19;;;7.47;55.38
48794;BME280;34589;42.306;23.858;2024-03-25T07:28:41;94532.66;;;7.48;55.61
48794;BME280;34589;42.306;23.858;2024-03-25T07:30:13;94518.66;;;7.51;55.97
48794;BME280;34589;42.306;23.858;2024-03-25T07:31:43;94526.34;;;7.42;54.75
48794;BME280;34589;42.306;23.858;2024-03-25T07:33:15;94527.59;;;7.38;54.63
48794;BME280;34589;42.306;23.858;2024-03-25T07:34:48;94532.88;;;7.55;55.39
48794;BME280;34589;42.306;23.858;2024-03-25T07:36:19;94529.63;;;7.53;53.98
48794;BME280;34589;42.306;23.858;2024-03-25T07:37:51;94531.31;;;7.70;54.05
48794;BME280;34589;42.306;23.858;2024-03-25T07:39:21;94533.91;;;7.70;54.50
48794;BME280;34589;42.306;23.858;2024-03-25T07:40:54;94526.34;;;7.77;54.52
48794;BME280;34589;42.306;23.858;2024-03-25T07:42:25;94534.44;;;7.82;53.38
48794;BME280;34589;42.306;23.858;2024-03-25T07:43:56;94536.81;;;8.02;53.63
48794;BME280;34589;42.306;23.858;2024-03-25T07:45:27;94539.63;;;8.25;53.00
48794;BME280;34589;42.306;23.858;2024-03-25T07:46:58;94531.38;;;8.29;52.78
48794;BME280;34589;42.306;23.858;2024-03-25T07:48:30;94529.88;;;8.10;52.27
48794;BME280;34589;42.306;23.858;2024-03-25T07:50:02;94535.09;;;8.27;53.12
48794;BME280;34589;42.306;23.858;2024-03-25T07:51:33;94528.63;;;8.14;51.89
48794;BME280;34589;42.306;23.858;2024-03-25T07:53:05;94540.94;;;8.29;51.64
48794;BME280;34589;42.306;23.858;2024-03-25T07:54:37;94543.63;;;8.19;50.91
48794;BME280;34589;42.306;23.858;2024-03-25T07:56:09;94536.09;;;8.34;50.38
48794;BME280;34589;42.306;23.858;2024-03-25T07:57:39;94536.78;;;8.44;50.02
48794;BME280;34589;42.306;23.858;2024-03-25T07:59:11;94536.88;;;8.18;49.51
48794;BME280;34589;42.306;23.858;2024-03-25T08:00:41;94531.72;;;8.26;50.26
48794;BME280;34589;42.306;23.858;2024-03-25T08:02:13;94532.28;;;8.46;51.10
48794;BME280;34589;42.306;23.858;2024-03-25T08:03:43;94525.53;;;8.62;51.19